createdAt,value
2022-09-23T00:01:47.445Z,16.90
2022-09-23T00:04:14.190Z,16.80
2022-09-23T00:06:41.620Z,16.80
2022-09-23T00:09:08.334Z,16.70
2022-09-23T00:11:35.012Z,16.70
2022-09-23T00:14:01.682Z,16.70
2022-09-23T00:16:33.437Z,16.60
2022-09-23T00:19:01.256Z,16.50
2022-09-23T00:21:28.238Z,16.60
2022-09-23T00:23:54.970Z,16.50
2022-09-23T00:26:22.405Z,16.50
2022-09-23T00:28:49.620Z,16.50
2022-09-23T00:31:18.378Z,16.40
2022-09-23T00:33:45.153Z,16.40
2022-09-23T00:36:15.173Z,16.30
2022-09-23T00:38:42.364Z,16.30
2022-09-23T00:41:09.214Z,11.70
2022-09-23T00:43:48.226Z,16.20
2022-09-23T00:46:20.324Z,16.20
2022-09-23T00:48:48.109Z,16.20
2022-09-23T00:53:45.956Z,16.10
2022-09-23T00:56:13.693Z,16.00
2022-09-23T00:58:41.719Z,16.00
2022-09-23T01:01:08.867Z,16.00
2022-09-23T01:03:35.633Z,15.90
2022-09-23T01:06:02.316Z,15.90
2022-09-23T01:08:29.327Z,15.80
2022-09-23T01:11:08.094Z,15.90
2022-09-23T01:13:47.626Z,15.80
2022-09-23T01:16:23.555Z,15.80
2022-09-23T01:18:57.779Z,15.80
2022-09-23T01:21:24.467Z,15.80
2022-09-23T01:24:04.664Z,15.60
2022-09-23T01:26:37.429Z,15.60
2022-09-23T01:31:49.464Z,15.60
2022-09-23T01:34:30.810Z,15.60
2022-09-23T01:37:16.012Z,15.50
2022-09-23T01:39:45.113Z,15.50
2022-09-23T01:42:23.385Z,15.50
2022-09-23T01:44:53.730Z,15.50
2022-09-23T01:47:35.954Z,15.50
2022-09-23T01:50:29.422Z,15.40
2022-09-23T01:52:58.042Z,15.40
2022-09-23T01:55:28.230Z,15.40
2022-09-23T01:58:07.270Z,15.40
2022-09-23T02:03:04.914Z,15.30
2022-09-23T02:08:05.352Z,15.30
2022-09-23T02:10:37.416Z,15.30
2022-09-23T02:13:09.872Z,15.20
2022-09-23T02:15:51.532Z,15.30
2022-09-23T02:18:30.020Z,15.20
2022-09-23T02:21:00.355Z,15.20
2022-09-23T02:23:29.815Z,15.20
2022-09-23T02:26:07.687Z,15.10
2022-09-23T02:28:49.777Z,15.10
2022-09-23T02:31:21.586Z,15.10
2022-09-23T02:33:55.836Z,15.10
2022-09-23T02:36:27.733Z,15.00
2022-09-23T02:38:57.540Z,15.00
2022-09-23T02:41:30.444Z,15.00
2022-09-23T02:44:01.130Z,15.00
2022-09-23T02:49:00.667Z,15.00
2022-09-23T02:51:28.906Z,14.90
2022-09-23T02:53:56.378Z,14.90
2022-09-23T02:58:51.854Z,14.90
2022-09-23T03:01:31.468Z,14.80
2022-09-23T03:04:05.040Z,14.80
2022-09-23T03:07:06.288Z,14.80
2022-09-23T03:09:39.895Z,14.80
2022-09-23T03:17:03.640Z,14.70
2022-09-23T03:22:07.062Z,14.60
2022-09-23T03:24:35.899Z,14.70
2022-09-23T03:27:05.106Z,14.60
2022-09-23T03:29:32.526Z,14.60
2022-09-23T03:31:59.984Z,14.60
2022-09-23T03:34:28.144Z,14.50
2022-09-23T03:37:14.129Z,14.50
2022-09-23T03:39:42.948Z,14.50
2022-09-23T03:42:16.903Z,14.50
2022-09-23T03:44:45.558Z,14.50
2022-09-23T03:47:13.807Z,14.50
2022-09-23T03:49:42.225Z,14.40
2022-09-23T03:52:08.935Z,14.40
2022-09-23T03:54:35.658Z,14.40
2022-09-23T03:57:03.021Z,14.40
2022-09-23T03:59:32.969Z,14.40
2022-09-23T04:01:59.972Z,14.40
2022-09-23T04:09:22.036Z,14.40
2022-09-23T04:11:52.236Z,14.40
2022-09-23T04:14:19.836Z,14.20
2022-09-23T04:16:47.128Z,14.30
2022-09-23T04:19:14.564Z,14.30
2022-09-23T04:21:41.769Z,14.30
2022-09-23T04:24:09.042Z,14.30
2022-09-23T04:26:36.072Z,14.20
2022-09-23T04:29:04.881Z,14.30
2022-09-23T04:31:32.569Z,14.20
2022-09-23T04:33:59.776Z,14.70
2022-09-23T04:36:26.594Z,14.20
2022-09-23T04:38:53.335Z,14.20
2022-09-23T04:41:20.056Z,14.40
2022-09-23T04:43:46.838Z,14.20
2022-09-23T04:46:14.773Z,14.20
2022-09-23T04:53:36.759Z,14.20
2022-09-23T04:56:04.284Z,13.90
2022-09-23T04:58:31.445Z,14.00
2022-09-23T05:01:03.006Z,14.10
2022-09-23T05:03:35.677Z,14.20
2022-09-23T05:06:02.365Z,14.10
2022-09-23T05:08:29.599Z,14.10
2022-09-23T05:10:57.062Z,14.10
2022-09-23T05:13:23.810Z,14.10
2022-09-23T05:15:56.645Z,14.10
2022-09-23T05:18:23.375Z,14.10
2022-09-23T05:20:54.561Z,14.10
2022-09-23T05:23:22.203Z,14.00
2022-09-23T05:25:49.011Z,14.10
2022-09-23T05:28:19.994Z,14.10
2022-09-23T05:30:46.702Z,14.00
2022-09-23T05:33:13.442Z,14.00
2022-09-23T05:35:46.480Z,14.10
2022-09-23T05:38:16.326Z,14.00
2022-09-23T05:40:43.586Z,14.00
2022-09-23T05:43:10.764Z,14.00
2022-09-23T05:45:37.730Z,14.00
2022-09-23T05:48:04.702Z,14.00
2022-09-23T05:52:59.756Z,14.00
2022-09-23T05:55:27.047Z,14.00
2022-09-23T05:57:53.736Z,14.00
2022-09-23T06:00:20.403Z,14.00
2022-09-23T06:02:48.648Z,14.00
2022-09-23T06:05:16.262Z,14.00
2022-09-23T06:07:43.141Z,14.00
2022-09-23T06:10:09.912Z,14.00
2022-09-23T06:12:36.590Z,14.00
2022-09-23T06:17:30.365Z,14.00
2022-09-23T06:19:57.313Z,14.00
2022-09-23T06:22:25.262Z,14.10
2022-09-23T06:24:52.201Z,14.10
2022-09-23T06:27:18.864Z,14.10
2022-09-23T06:32:12.657Z,14.10
2022-09-23T06:34:51.071Z,14.10
2022-09-23T06:37:20.411Z,14.10
2022-09-23T06:39:47.432Z,14.20
2022-09-23T06:42:15.855Z,14.20
2022-09-23T06:44:43.006Z,14.10
2022-09-23T06:47:09.662Z,14.20
2022-09-23T06:49:36.858Z,14.30
2022-09-23T06:52:05.124Z,14.30
2022-09-23T06:54:31.852Z,14.30
2022-09-23T06:56:58.543Z,14.30
2022-09-23T06:59:25.328Z,14.40
2022-09-23T07:01:52.164Z,14.40
2022-09-23T07:04:19.010Z,14.50
2022-09-23T07:06:45.772Z,14.40
2022-09-23T07:09:12.436Z,14.50
2022-09-23T07:11:39.746Z,14.60
2022-09-23T07:14:06.664Z,14.60
2022-09-23T07:16:33.568Z,14.60
2022-09-23T07:19:00.340Z,14.70
2022-09-23T07:21:27.814Z,14.70
2022-09-23T07:23:55.234Z,14.70
2022-09-23T07:26:22.874Z,14.70
2022-09-23T07:28:54.409Z,14.80
2022-09-23T07:31:34.121Z,14.80
2022-09-23T07:34:04.994Z,14.90
2022-09-23T07:36:32.804Z,14.90
2022-09-23T07:39:02.942Z,14.90
2022-09-23T07:41:30.882Z,15.00
2022-09-23T07:43:59.023Z,15.00
2022-09-23T07:46:27.673Z,15.10
2022-09-23T07:48:54.856Z,15.10
2022-09-23T07:51:23.653Z,15.10
2022-09-23T07:53:51.212Z,15.20
2022-09-23T07:56:19.379Z,15.20
2022-09-23T07:58:46.507Z,15.20
2022-09-23T08:01:13.761Z,15.20
2022-09-23T08:03:40.519Z,15.30
2022-09-23T08:06:12.283Z,15.30
2022-09-23T08:08:40.684Z,15.30
2022-09-23T08:11:08.104Z,15.40
2022-09-23T08:13:34.833Z,15.40
2022-09-23T08:16:01.800Z,15.20
2022-09-23T08:18:28.829Z,15.40
2022-09-23T08:20:55.556Z,15.50
2022-09-23T08:23:23.140Z,15.50
2022-09-23T08:25:59.528Z,15.40
2022-09-23T08:28:26.894Z,15.50
2022-09-23T08:30:53.667Z,15.50
2022-09-23T08:33:23.405Z,15.50
2022-09-23T08:35:51.458Z,15.50
2022-09-23T08:38:18.586Z,15.60
2022-09-23T08:40:48.401Z,15.60
2022-09-23T08:43:26.243Z,15.60
2022-09-23T08:45:54.704Z,15.60
2022-09-23T08:48:27.340Z,15.70
2022-09-23T08:50:58.446Z,15.70
2022-09-23T08:53:26.478Z,15.70
2022-09-23T08:55:54.922Z,15.70
2022-09-23T08:58:30.825Z,15.70
2022-09-23T09:01:03.589Z,15.70
2022-09-23T09:03:33.951Z,15.80
2022-09-23T09:06:00.950Z,15.80
2022-09-23T09:08:35.136Z,15.80
2022-09-23T09:11:02.706Z,15.90
2022-09-23T09:13:33.699Z,15.90
2022-09-23T09:16:07.356Z,15.90
2022-09-23T09:18:35.518Z,15.90
2022-09-23T09:21:11.260Z,16.00
2022-09-23T09:23:45.822Z,16.00
2022-09-23T09:26:16.772Z,20.90
2022-09-23T09:28:48.506Z,16.10
2022-09-23T09:31:37.915Z,16.10
2022-09-23T09:34:06.242Z,16.10
2022-09-23T09:36:53.246Z,16.20
2022-09-23T09:39:24.102Z,16.20
2022-09-23T09:41:55.444Z,16.30
2022-09-23T09:44:37.043Z,16.30
2022-09-23T09:47:04.229Z,16.30
2022-09-23T09:49:39.568Z,16.40
2022-09-23T09:52:13.373Z,16.40
2022-09-23T09:54:40.094Z,16.40
2022-09-23T09:57:15.017Z,16.50
2022-09-23T09:59:43.028Z,16.50
2022-09-23T10:02:28.304Z,16.60
2022-09-23T10:05:00.521Z,16.60
2022-09-23T10:07:31.160Z,16.70
2022-09-23T10:10:06.088Z,16.70
2022-09-23T10:12:49.837Z,16.70
2022-09-23T10:15:25.564Z,16.80
2022-09-23T10:17:52.372Z,16.80
2022-09-23T10:20:19.378Z,16.90
2022-09-23T10:22:46.499Z,16.90
2022-09-23T10:25:19.195Z,16.90
2022-09-23T10:27:45.926Z,17.00
2022-09-23T10:30:23.636Z,17.10
2022-09-23T10:32:51.486Z,17.10
2022-09-23T10:35:21.842Z,22.10
2022-09-23T10:37:48.577Z,17.20
2022-09-23T10:40:37.311Z,17.30
2022-09-23T10:43:33.510Z,17.40
2022-09-23T10:46:21.442Z,17.40
2022-09-23T10:48:48.175Z,17.10
2022-09-23T10:51:19.204Z,17.60
2022-09-23T10:53:54.201Z,17.70
2022-09-23T10:56:39.447Z,17.80
2022-09-23T10:59:29.129Z,17.90
2022-09-23T11:01:59.085Z,17.90
2022-09-23T11:04:32.813Z,18.00
2022-09-23T11:07:14.089Z,18.10
2022-09-23T11:09:59.960Z,18.10
2022-09-23T11:12:33.523Z,18.20
2022-09-23T11:15:00.206Z,18.30
2022-09-23T11:17:33.911Z,18.30
2022-09-23T11:20:03.689Z,18.50
2022-09-23T11:22:36.173Z,18.50
2022-09-23T11:25:23.971Z,18.60
2022-09-23T11:28:17.420Z,18.60
2022-09-23T11:30:58.071Z,22.80
2022-09-23T11:33:32.236Z,18.70
2022-09-23T11:36:01.867Z,18.80
2022-09-23T11:38:35.846Z,18.90
2022-09-23T11:41:09.019Z,19.00
2022-09-23T11:43:39.503Z,19.10
2022-09-23T11:46:14.121Z,19.10
2022-09-23T11:48:47.860Z,19.20
2022-09-23T11:51:17.600Z,19.20
2022-09-23T11:53:46.501Z,19.30
2022-09-23T11:56:32.881Z,19.40
2022-09-23T11:59:02.229Z,19.50
2022-09-23T12:01:37.879Z,19.60
2022-09-23T12:04:18.707Z,19.60
2022-09-23T12:06:48.716Z,19.70
2022-09-23T12:09:53.959Z,22.20
2022-09-23T12:12:25.055Z,19.90
2022-09-23T12:15:06.566Z,20.00
2022-09-23T12:17:52.021Z,20.10
2022-09-23T12:20:25.809Z,20.10
2022-09-23T12:23:13.294Z,20.20
2022-09-23T12:25:39.988Z,20.30
2022-09-23T12:28:13.202Z,20.40
2022-09-23T12:30:40.557Z,20.40
2022-09-23T12:33:09.018Z,20.60
2022-09-23T12:35:39.362Z,20.60
2022-09-23T12:38:13.383Z,20.70
2022-09-23T12:40:43.990Z,20.80
2022-09-23T12:43:18.122Z,20.80
2022-09-23T12:45:45.541Z,21.00
2022-09-23T12:48:15.365Z,21.10
2022-09-23T12:50:46.661Z,21.20
2022-09-23T12:53:31.895Z,21.30
2022-09-23T12:55:59.356Z,21.40
2022-09-23T12:58:46.315Z,21.50
2022-09-23T13:01:17.213Z,20.90
2022-09-23T13:04:08.388Z,21.70
2022-09-23T13:06:41.481Z,21.80
2022-09-23T13:09:13.325Z,22.00
2022-09-23T13:11:43.303Z,22.20
2022-09-23T13:14:11.284Z,22.30
2022-09-23T13:16:43.599Z,22.40
2022-09-23T13:19:25.421Z,22.60
2022-09-23T13:21:58.132Z,22.70
2022-09-23T13:24:25.006Z,22.90
2022-09-23T13:26:54.724Z,23.00
2022-09-23T13:29:47.835Z,23.10
2022-09-23T13:32:18.896Z,23.20
2022-09-23T13:34:47.367Z,23.40
2022-09-23T13:37:22.916Z,23.50
2022-09-23T13:39:50.033Z,23.60
2022-09-23T13:42:35.844Z,23.60
2022-09-23T13:45:02.752Z,23.60
2022-09-23T13:47:30.560Z,23.70
2022-09-23T13:49:57.498Z,23.70
2022-09-23T13:52:30.037Z,23.80
2022-09-23T13:54:57.099Z,23.90
2022-09-23T13:57:25.082Z,23.90
2022-09-23T13:59:52.116Z,24.00
2022-09-23T14:02:18.937Z,24.20
2022-09-23T14:04:46.168Z,24.30
2022-09-23T14:07:14.256Z,24.40
2022-09-23T14:09:45.137Z,24.50
2022-09-23T14:12:12.353Z,24.70
2022-09-23T14:14:40.382Z,24.80
2022-09-23T14:17:07.795Z,25.00
2022-09-23T14:19:35.693Z,25.00
2022-09-23T14:22:02.400Z,25.10
2022-09-23T14:24:29.050Z,25.20
2022-09-23T14:27:00.928Z,25.30
2022-09-23T14:29:31.803Z,25.40
2022-09-23T14:32:02.890Z,25.40
2022-09-23T14:34:39.600Z,25.50
2022-09-23T14:37:45.445Z,25.60
2022-09-23T14:40:14.024Z,25.70
2022-09-23T14:42:42.573Z,25.90
2022-09-23T14:45:13.514Z,26.00
2022-09-23T14:47:43.273Z,26.00
2022-09-23T14:50:39.566Z,26.20
2022-09-23T14:53:26.641Z,26.20
2022-09-23T14:55:57.283Z,26.30
2022-09-23T14:58:30.533Z,26.30
2022-09-23T15:01:01.301Z,27.90
2022-09-23T15:03:28.926Z,26.30
2022-09-23T15:06:04.092Z,26.30
2022-09-23T15:08:35.000Z,26.30
2022-09-23T15:11:08.192Z,26.30
2022-09-23T15:13:40.302Z,26.30
2022-09-23T15:16:08.336Z,26.20
2022-09-23T15:18:37.016Z,26.10
2022-09-23T15:21:03.974Z,26.00
2022-09-23T15:23:43.621Z,26.00
2022-09-23T15:26:17.133Z,25.80
2022-09-23T15:28:44.715Z,25.70
2022-09-23T15:31:12.836Z,25.60
2022-09-23T15:33:39.979Z,25.50
2022-09-23T15:36:07.199Z,25.40
2022-09-23T15:38:34.249Z,25.30
2022-09-23T15:41:01.355Z,25.20
2022-09-23T15:43:28.360Z,25.10
2022-09-23T15:45:59.149Z,25.00
2022-09-23T15:48:27.475Z,24.90
2022-09-23T15:50:54.694Z,24.80
2022-09-23T15:53:23.921Z,24.60
2022-09-23T15:55:51.727Z,24.50
2022-09-23T15:58:21.986Z,24.40
2022-09-23T16:00:55.983Z,26.70
2022-09-23T16:03:28.242Z,24.20
2022-09-23T16:06:00.553Z,24.10
2022-09-23T16:08:27.703Z,24.00
2022-09-23T16:10:54.940Z,23.90
2022-09-23T16:13:21.843Z,23.80
2022-09-23T16:15:48.563Z,23.80
2022-09-23T16:18:15.363Z,23.70
2022-09-23T16:20:43.057Z,23.60
2022-09-23T16:23:12.510Z,23.50
2022-09-23T16:25:39.299Z,23.50
2022-09-23T16:28:06.180Z,23.60
2022-09-23T16:30:33.614Z,23.40
2022-09-23T16:33:01.885Z,23.30
2022-09-23T16:35:31.245Z,23.30
2022-09-23T16:37:57.973Z,23.20
2022-09-23T16:40:24.884Z,23.10
2022-09-23T16:42:52.358Z,23.20
2022-09-23T16:45:22.222Z,23.00
2022-09-23T16:47:51.018Z,22.90
2022-09-23T16:50:19.822Z,22.90
2022-09-23T16:52:46.940Z,22.90
2022-09-23T16:55:14.301Z,22.80
2022-09-23T16:57:41.263Z,22.80
2022-09-23T17:00:34.096Z,22.70
2022-09-23T17:03:19.666Z,22.60
2022-09-23T17:05:47.070Z,22.50
2022-09-23T17:08:14.750Z,22.50
2022-09-23T17:10:41.793Z,22.40
2022-09-23T17:13:08.983Z,22.30
2022-09-23T17:15:37.528Z,22.30
2022-09-23T17:18:05.159Z,22.20
2022-09-23T17:20:31.931Z,22.10
2022-09-23T17:22:58.725Z,22.10
2022-09-23T17:25:25.950Z,22.00
2022-09-23T17:27:52.653Z,21.90
2022-09-23T17:30:19.424Z,21.90
2022-09-23T17:32:47.153Z,21.80
2022-09-23T17:35:13.855Z,21.80
2022-09-23T17:37:40.568Z,21.70
2022-09-23T17:40:07.611Z,21.60
2022-09-23T17:42:35.605Z,21.50
2022-09-23T17:45:02.271Z,21.50
2022-09-23T17:47:28.969Z,21.50
2022-09-23T17:49:56.160Z,21.40
2022-09-23T17:52:22.972Z,21.30
2022-09-23T17:54:49.740Z,21.30
2022-09-23T17:57:16.402Z,21.20
2022-09-23T17:59:43.160Z,21.20
2022-09-23T18:02:14.934Z,21.10
2022-09-23T18:04:42.443Z,21.00
2022-09-23T18:07:09.114Z,21.00
2022-09-23T18:09:35.805Z,20.90
2022-09-23T18:12:02.648Z,20.90
2022-09-23T18:14:29.870Z,20.80
2022-09-23T18:16:57.252Z,20.70
2022-09-23T18:19:27.438Z,20.70
2022-09-23T18:21:56.150Z,20.60
2022-09-23T18:24:38.697Z,20.60
2022-09-23T18:27:06.471Z,20.50
2022-09-23T18:29:34.021Z,20.50
2022-09-23T18:32:01.513Z,20.40
2022-09-23T18:34:29.020Z,20.40
2022-09-23T18:36:56.216Z,20.30
2022-09-23T18:39:22.990Z,20.30
2022-09-23T18:41:50.676Z,20.30
2022-09-23T18:44:17.843Z,20.30
2022-09-23T18:46:44.818Z,20.20
2022-09-23T18:49:30.217Z,20.10
2022-09-23T18:51:58.115Z,20.10
2022-09-23T18:54:26.066Z,20.10
2022-09-23T18:56:52.855Z,20.10
2022-09-23T18:59:20.987Z,20.00
2022-09-23T19:01:50.119Z,20.00
2022-09-23T19:04:18.910Z,19.90
2022-09-23T19:06:46.031Z,19.90
2022-09-23T19:09:14.211Z,19.90
2022-09-23T19:11:40.937Z,19.80
2022-09-23T19:14:10.938Z,19.80
2022-09-23T19:16:38.800Z,19.80
2022-09-23T19:19:05.767Z,19.70
2022-09-23T19:21:33.434Z,19.80
2022-09-23T19:24:05.428Z,19.70
2022-09-23T19:26:37.775Z,19.70
2022-09-23T19:29:06.384Z,19.60
2022-09-23T19:31:34.648Z,19.60
2022-09-23T19:34:10.064Z,19.50
2022-09-23T19:36:38.056Z,19.50
2022-09-23T19:39:06.105Z,19.50
2022-09-23T19:41:33.458Z,19.50
2022-09-23T19:44:03.734Z,19.50
2022-09-23T19:46:34.256Z,19.40
2022-09-23T19:49:01.371Z,19.40
2022-09-23T19:51:28.366Z,19.30
2022-09-23T19:53:55.267Z,19.40
2022-09-23T19:56:23.274Z,19.30
2022-09-23T19:58:54.878Z,19.30
2022-09-23T20:01:22.709Z,19.30
2022-09-23T20:03:49.690Z,19.20
2022-09-23T20:06:16.972Z,19.20
2022-09-23T20:08:44.096Z,19.20
2022-09-23T20:11:12.523Z,19.20
2022-09-23T20:13:39.827Z,19.10
2022-09-23T20:16:11.249Z,19.10
2022-09-23T20:18:38.471Z,19.10
2022-09-23T20:21:05.947Z,19.10
2022-09-23T20:23:32.692Z,19.00
2022-09-23T20:26:18.897Z,19.00
2022-09-23T20:28:45.763Z,19.00
2022-09-23T20:31:12.848Z,18.90
2022-09-23T20:33:43.039Z,18.90
2022-09-23T20:36:10.596Z,18.80
2022-09-23T20:38:37.372Z,18.80
2022-09-23T20:41:04.063Z,18.80
2022-09-23T20:43:32.943Z,18.80
2022-09-23T20:46:00.608Z,18.80
2022-09-23T20:48:27.878Z,18.70
2022-09-23T20:51:04.350Z,18.70
2022-09-23T20:53:32.289Z,18.60
2022-09-23T20:55:59.459Z,18.60
2022-09-23T20:58:29.629Z,18.60
2022-09-23T21:01:01.462Z,18.50
2022-09-23T21:03:29.451Z,18.50
2022-09-23T21:05:56.129Z,18.50
2022-09-23T21:08:24.467Z,18.50
2022-09-23T21:10:54.824Z,18.40
2022-09-23T21:13:21.681Z,18.40
2022-09-23T21:15:48.451Z,18.40
2022-09-23T21:18:19.211Z,18.40
2022-09-23T21:20:55.021Z,18.30
2022-09-23T21:23:28.538Z,18.30
2022-09-23T21:26:06.674Z,18.30
2022-09-23T21:28:34.840Z,18.20
2022-09-23T21:31:02.325Z,18.20
2022-09-23T21:33:30.363Z,18.20
2022-09-23T21:35:57.846Z,18.20
2022-09-23T21:38:24.976Z,18.20
2022-09-23T21:40:58.255Z,18.10
2022-09-23T21:43:25.897Z,18.10
2022-09-23T21:45:58.843Z,19.90
2022-09-23T21:48:26.774Z,18.00
2022-09-23T21:50:54.167Z,18.00
2022-09-23T21:53:21.179Z,18.00
2022-09-23T21:55:48.760Z,18.00
2022-09-23T21:58:15.658Z,18.00
2022-09-23T22:00:43.226Z,18.00
2022-09-23T22:03:10.811Z,18.00
2022-09-23T22:05:43.991Z,18.00
2022-09-23T22:08:10.710Z,17.90
2022-09-23T22:10:37.523Z,17.90
2022-09-23T22:13:08.149Z,17.90
2022-09-23T22:15:38.631Z,18.20
2022-09-23T22:18:05.454Z,17.90
2022-09-23T22:20:33.526Z,17.90
2022-09-23T22:23:00.230Z,17.90
2022-09-23T22:25:27.244Z,17.90
2022-09-23T22:28:12.440Z,17.90
2022-09-23T22:30:57.696Z,17.90
2022-09-23T22:33:24.439Z,17.80
2022-09-23T22:35:51.106Z,17.90
2022-09-23T22:38:19.017Z,20.80
2022-09-23T22:40:45.891Z,17.80
2022-09-23T22:43:12.857Z,17.80
2022-09-23T22:45:39.798Z,17.80
2022-09-23T22:48:06.680Z,17.80
2022-09-23T22:50:33.459Z,17.80
2022-09-23T22:53:01.771Z,17.80
2022-09-23T22:55:28.624Z,17.70
2022-09-23T22:57:55.331Z,17.80
2022-09-23T23:00:22.094Z,17.90
2022-09-23T23:02:48.818Z,17.70
2022-09-23T23:05:15.581Z,17.70
2022-09-23T23:07:42.353Z,17.70
2022-09-23T23:10:10.348Z,17.70
2022-09-23T23:12:37.488Z,17.60
2022-09-23T23:15:04.343Z,17.60
2022-09-23T23:17:31.506Z,17.60
2022-09-23T23:19:58.485Z,17.60
2022-09-23T23:22:28.574Z,17.60
2022-09-23T23:24:55.263Z,17.60
2022-09-23T23:27:21.919Z,17.50
2022-09-23T23:29:48.646Z,17.50
2022-09-23T23:32:16.726Z,17.50
2022-09-23T23:34:43.615Z,17.50
2022-09-23T23:37:10.397Z,18.20
2022-09-23T23:39:37.078Z,17.50
2022-09-23T23:42:04.763Z,17.50
2022-09-23T23:44:34.477Z,17.40
2022-09-23T23:47:01.699Z,17.50
2022-09-23T23:49:29.320Z,17.40
2022-09-23T23:51:56.572Z,17.40
2022-09-23T23:54:23.437Z,17.40
2022-09-23T23:56:50.403Z,17.40
2022-09-23T23:59:19.656Z,17.40
